Key Biscayne, Florida
Current Conditions -  °F | °C
As of 5:53 PM on Friday 19 Dec 2014 (Local Time) from KMIA Reporting Station
Broken Clouds Broken Clouds  
Wind Chill: 72°   Ceiling: 25000
Heat Index: 72°   Visibility: 10mi
Dew Point: 57°   Wind: 9mph
Humidity: 59%   Direction: 110°ESE
Pressure: 30.05"   Gusts: NA
Location:  25.69°N, 80.16°W
Report Text: KMIA 192253Z 11008KT 10SM FEW035 BKN250 22/14 A3005 RMK AO2 SLP174 T02220139
Loading
Personal Weather Stations






























Interactive Weather Map New forecast layout! Learn more

10-Day Weather Forecast

Advertisements
Track Severe Weather on mobile